Time;durP1;ratioP1;P1;durP2;ratioP2;P2;SDS_P1;SDS_P2;PMS_P1;PMS_P2;Temp;Humidity;BMP_temperature;BMP_pressure;BME280_temperature;BME280_humidity;BME280_pressure;Samples;Min_cycle;Max_cycle;Signal;HPM_P1;HPM_P2
2022/09/07 00:01:01;;;;;;;5.43;3.00;;;26.50;54.90;;;;;;5006749;28;20958;-48
2022/09/07 00:03:26;;;;;;;4.10;3.73;;;26.40;56.00;;;;;;5006994;28;20511;-50
2022/09/07 00:05:52;;;;;;;5.03;4.37;;;26.40;56.60;;;;;;5003672;28;20217;-49
2022/09/07 00:08:21;;;;;;;3.53;3.23;;;26.50;56.20;;;;;;5003005;28;20190;-48
2022/09/07 00:10:58;;;;;;;3.80;3.50;;;26.60;56.10;;;;;;5005144;28;20225;-48
2022/09/07 00:13:28;;;;;;;4.57;3.53;;;26.60;55.80;;;;;;5004118;28;20456;-48
2022/09/07 00:15:53;;;;;;;4.80;3.40;;;26.70;55.80;;;;;;5005220;28;20522;-50
2022/09/07 00:18:19;;;;;;;5.30;3.40;;;26.40;56.00;;;;;;5000805;28;20456;-47
2022/09/07 00:20:45;;;;;;;3.80;3.40;;;26.40;56.10;;;;;;5003034;28;20222;-46
2022/09/07 00:23:11;;;;;;;3.87;3.47;;;26.60;55.70;;;;;;4999246;28;20186;-46
2022/09/07 00:25:38;;;;;;;5.40;3.30;;;26.70;55.10;;;;;;4999422;28;20204;-48
2022/09/07 00:28:05;;;;;;;9.53;3.60;;;26.70;55.10;;;;;;5002179;28;20198;-50
2022/09/07 00:30:31;;;;;;;3.63;3.33;;;26.70;55.40;;;;;;5004807;28;20526;-48
2022/09/07 00:32:57;;;;;;;3.60;3.30;;;26.70;54.60;;;;;;4996260;28;20444;-50
2022/09/07 00:35:23;;;;;;;3.53;3.23;;;26.70;55.20;;;;;;4999486;28;20441;-51
2022/09/07 00:37:48;;;;;;;5.67;3.93;;;26.80;55.20;;;;;;4996980;28;20203;-50
2022/09/07 00:40:14;;;;;;;3.80;3.20;;;26.80;54.50;;;;;;5006475;28;20218;-46
2022/09/07 00:42:40;;;;;;;9.40;3.20;;;26.80;54.00;;;;;;4995171;28;20683;-46
2022/09/07 00:45:05;;;;;;;4.20;3.00;;;26.80;54.10;;;;;;4992664;28;20269;-45
2022/09/07 00:47:46;;;;;;;5.33;3.30;;;26.40;54.70;;;;;;5008547;28;20907;-47
2022/09/07 00:50:24;;;;;;;4.00;3.00;;;26.40;55.30;;;;;;4994251;28;20491;-47
2022/09/07 00:52:56;;;;;;;5.40;3.40;;;26.40;55.50;;;;;;5002245;28;20455;-47
2022/09/07 00:55:22;;;;;;;5.43;3.53;;;26.40;56.00;;;;;;5004711;28;20437;-46
2022/09/07 00:57:53;;;;;;;6.33;3.63;;;26.30;55.80;;;;;;5007285;28;20506;-48
2022/09/07 01:00:19;;;;;;;4.17;3.77;;;26.40;55.70;;;;;;5003055;28;20535;-46
2022/09/07 01:02:48;;;;;;;7.73;4.40;;;26.40;55.80;;;;;;5004250;28;20456;-45
2022/09/07 01:05:41;;;;;;;4.67;3.67;;;26.40;55.80;;;;;;4996522;28;20445;-48
2022/09/07 01:08:08;;;;;;;6.50;3.80;;;26.30;55.90;;;;;;5003002;28;20456;-46
2022/09/07 01:10:35;;;;;;;4.80;4.10;;;26.20;56.40;;;;;;5000427;28;20956;-46
2022/09/07 01:13:00;;;;;;;4.97;3.73;;;26.20;56.80;;;;;;5001917;28;20796;-47
2022/09/07 01:16:05;;;;;;;4.30;4.00;;;26.10;56.90;;;;;;5003491;28;20449;-47
2022/09/07 01:18:54;;;;;;;4.83;4.33;;;26.10;57.00;;;;;;5007648;28;20608;-46
2022/09/07 01:21:25;;;;;;;11.53;4.60;;;26.00;57.30;;;;;;5007119;28;20575;-46
2022/09/07 01:24:12;;;;;;;5.33;4.20;;;25.90;57.60;;;;;;5007689;28;20502;-45
2022/09/07 01:27:10;;;;;;;4.23;3.83;;;25.80;57.70;;;;;;5006077;28;20471;-46
2022/09/07 01:30:26;;;;;;;7.70;3.67;;;25.90;57.60;;;;;;4999039;28;20487;-46
2022/09/07 01:33:00;;;;;;;4.30;3.90;;;25.90;57.40;;;;;;4960337;28;20523;-46
2022/09/07 01:35:46;;;;;;;4.10;3.70;;;26.00;57.30;;;;;;5009913;28;20999;-45
2022/09/07 01:38:33;;;;;;;4.13;3.73;;;26.00;57.10;;;;;;5009584;28;20487;-46
2022/09/07 01:41:15;;;;;;;12.07;5.63;;;26.00;57.10;;;;;;5003798;28;20824;-45
2022/09/07 01:43:47;;;;;;;5.57;3.80;;;26.10;57.00;;;;;;5007918;28;20483;-46
2022/09/07 01:46:26;;;;;;;4.30;3.97;;;26.00;57.10;;;;;;5008501;28;20448;-46
2022/09/07 01:48:56;;;;;;;4.70;3.43;;;26.10;56.80;;;;;;5005686;28;20532;-46
2022/09/07 01:51:29;;;;;;;5.37;3.70;;;26.10;56.80;;;;;;5006796;28;20436;-46
2022/09/07 01:54:00;;;;;;;4.53;4.13;;;26.10;56.60;;;;;;5007781;28;20457;-46
2022/09/07 01:56:29;;;;;;;4.53;3.70;;;26.10;56.50;;;;;;5002065;28;20959;-48
2022/09/07 01:59:21;;;;;;;5.60;3.57;;;26.10;56.30;;;;;;5003250;28;20599;-47
2022/09/07 02:02:09;;;;;;;4.70;4.30;;;26.10;56.50;;;;;;5005251;28;20499;-46
2022/09/07 02:04:40;;;;;;;6.73;3.50;;;26.00;56.90;;;;;;4999112;28;20437;-46
2022/09/07 02:07:17;;;;;;;4.63;3.93;;;26.10;56.60;;;;;;5005303;28;20998;-45
2022/09/07 02:09:45;;;;;;;4.63;3.60;;;26.10;56.10;;;;;;5003794;28;20444;-46
2022/09/07 02:12:20;;;;;;;12.20;4.90;;;26.00;57.00;;;;;;5007723;28;20444;-47
2022/09/07 02:14:52;;;;;;;4.30;3.70;;;25.90;57.10;;;;;;5004801;28;20452;-47
2022/09/07 02:17:25;;;;;;;4.30;3.67;;;25.90;57.10;;;;;;5007940;28;20456;-47
2022/09/07 02:19:54;;;;;;;4.77;3.60;;;25.90;57.20;;;;;;5001856;28;20503;-48
2022/09/07 02:22:26;;;;;;;4.43;3.83;;;25.90;56.90;;;;;;5009349;28;20494;-46
2022/09/07 02:24:56;;;;;;;3.43;3.13;;;26.00;56.90;;;;;;5006570;28;20451;-49
2022/09/07 02:27:44;;;;;;;4.23;3.20;;;26.00;56.80;;;;;;5006600;28;20958;-50
2022/09/07 02:30:10;;;;;;;4.47;3.43;;;26.00;56.80;;;;;;5004422;28;20472;-48
2022/09/07 02:32:36;;;;;;;5.60;3.20;;;26.10;56.50;;;;;;5001068;28;21756;-49
2022/09/07 02:35:01;;;;;;;7.77;4.30;;;26.10;56.20;;;;;;5010110;28;20441;-49
2022/09/07 02:37:28;;;;;;;5.87;3.60;;;26.20;55.70;;;;;;5006037;28;20234;-46
2022/09/07 02:39:54;;;;;;;3.83;3.50;;;26.10;55.90;;;;;;5006208;28;20201;-49
2022/09/07 02:42:19;;;;;;;3.50;3.20;;;26.10;55.90;;;;;;5017746;28;20482;-49
2022/09/07 02:44:46;;;;;;;6.43;3.83;;;26.10;55.80;;;;;;5012029;28;20225;-50
2022/09/07 02:47:13;;;;;;;4.60;3.80;;;26.10;55.70;;;;;;5013565;28;20680;-50
2022/09/07 02:50:01;;;;;;;4.10;3.70;;;26.20;56.10;;;;;;5008409;28;20444;-48
2022/09/07 02:52:52;;;;;;;4.80;3.80;;;26.20;56.00;;;;;;5010182;28;20453;-47
2022/09/07 02:55:54;;;;;;;5.67;4.57;;;26.20;56.00;;;;;;5008249;28;20495;-47
2022/09/07 02:58:44;;;;;;;3.47;3.17;;;26.20;55.80;;;;;;4998516;28;20467;-49
2022/09/07 03:01:36;;;;;;;4.20;3.13;;;26.20;56.40;;;;;;5007252;28;20485;-51
2022/09/07 03:04:12;;;;;;;6.70;4.33;;;26.20;55.70;;;;;;5002566;28;20532;-49
2022/09/07 03:06:44;;;;;;;4.50;3.90;;;26.10;55.70;;;;;;4997234;28;20449;-48
2022/09/07 03:09:15;;;;;;;4.27;3.87;;;26.10;56.10;;;;;;5003235;28;20451;-49
2022/09/07 03:11:41;;;;;;;5.80;4.50;;;26.00;56.50;;;;;;5003947;28;20437;-46
2022/09/07 03:14:15;;;;;;;4.63;4.10;;;26.00;56.90;;;;;;5000262;28;20444;-46
2022/09/07 03:16:42;;;;;;;5.53;4.57;;;26.00;57.00;;;;;;5006014;28;20186;-47
2022/09/07 03:19:08;;;;;;;5.10;3.73;;;25.90;57.00;;;;;;5004803;28;21065;-46
2022/09/07 03:21:34;;;;;;;4.90;4.37;;;25.90;57.10;;;;;;5003708;28;20576;-46
2022/09/07 03:24:00;;;;;;;4.90;3.60;;;25.90;57.10;;;;;;5014488;28;20198;-46
2022/09/07 03:26:26;;;;;;;4.77;3.97;;;25.90;57.00;;;;;;5002725;28;20445;-47
2022/09/07 03:28:51;;;;;;;10.20;4.07;;;25.90;57.00;;;;;;5013626;28;20247;-46
2022/09/07 03:31:17;;;;;;;4.37;3.97;;;25.90;57.10;;;;;;4999713;28;20194;-47
2022/09/07 03:33:43;;;;;;;4.23;3.83;;;26.00;57.10;;;;;;5002151;28;20264;-46
2022/09/07 03:36:08;;;;;;;6.17;3.63;;;26.00;56.80;;;;;;5003413;28;20289;-49
2022/09/07 03:38:34;;;;;;;4.77;4.37;;;26.00;56.80;;;;;;4999561;28;20676;-45
2022/09/07 03:41:01;;;;;;;5.87;4.00;;;26.10;56.70;;;;;;5005837;28;20221;-48
2022/09/07 03:43:28;;;;;;;4.03;3.73;;;26.10;56.30;;;;;;5002139;28;20229;-45
2022/09/07 03:46:04;;;;;;;3.87;3.57;;;26.00;56.30;;;;;;5000841;28;20507;-46
2022/09/07 03:48:31;;;;;;;5.47;3.80;;;26.00;56.20;;;;;;5002219;28;20461;-47
2022/09/07 03:51:18;;;;;;;7.57;4.10;;;26.00;56.50;;;;;;4994744;28;20449;-47
2022/09/07 03:53:45;;;;;;;3.90;3.60;;;26.00;56.50;;;;;;4998481;28;20547;-46
2022/09/07 03:56:17;;;;;;;4.83;4.33;;;26.00;56.50;;;;;;5006074;28;20531;-46
2022/09/07 03:58:43;;;;;;;3.90;3.60;;;26.00;56.50;;;;;;5005262;28;20448;-46
2022/09/07 04:01:14;;;;;;;3.93;3.53;;;26.00;56.40;;;;;;5003646;28;20550;-46
2022/09/07 04:03:41;;;;;;;5.63;3.60;;;26.00;56.40;;;;;;5006230;28;20472;-50
2022/09/07 04:06:07;;;;;;;4.63;3.43;;;26.00;56.30;;;;;;5004181;28;20521;-50
2022/09/07 04:08:34;;;;;;;6.10;3.50;;;26.00;56.00;;;;;;5004785;28;21035;-51
2022/09/07 04:11:02;;;;;;;4.20;3.83;;;26.00;56.30;;;;;;5006705;28;20511;-50
2022/09/07 04:13:29;;;;;;;4.10;3.70;;;26.00;55.90;;;;;;4998526;28;21119;-50
2022/09/07 04:15:56;;;;;;;5.13;3.70;;;26.00;55.70;;;;;;5004709;28;20468;-47
2022/09/07 04:18:22;;;;;;;7.90;3.93;;;25.90;56.00;;;;;;4995756;28;20442;-47
2022/09/07 04:20:51;;;;;;;4.90;3.63;;;25.90;56.30;;;;;;5006812;28;21254;-51
2022/09/07 04:23:18;;;;;;;7.03;3.83;;;25.90;56.50;;;;;;5001083;28;20453;-46
2022/09/07 04:25:50;;;;;;;3.70;3.37;;;25.90;56.50;;;;;;5008389;28;20543;-51
2022/09/07 04:28:17;;;;;;;4.33;3.87;;;25.90;56.40;;;;;;5000315;28;20457;-46
2022/09/07 04:30:43;;;;;;;5.30;4.80;;;25.90;56.50;;;;;;5008765;28;20453;-50
2022/09/07 04:33:09;;;;;;;5.67;3.73;;;25.90;56.50;;;;;;5008901;28;21028;-47
2022/09/07 04:35:36;;;;;;;4.13;3.83;;;25.90;56.80;;;;;;5001947;28;20441;-46
2022/09/07 04:38:02;;;;;;;5.60;3.73;;;25.90;57.00;;;;;;5005267;28;20195;-50
2022/09/07 04:40:28;;;;;;;6.03;4.30;;;25.90;56.90;;;;;;5009452;28;20482;-46
2022/09/07 04:42:53;;;;;;;6.23;4.07;;;25.90;56.80;;;;;;5006963;28;20238;-48
2022/09/07 04:45:19;;;;;;;3.83;3.50;;;26.00;56.40;;;;;;5004917;28;20226;-49
2022/09/07 04:47:48;;;;;;;4.57;3.57;;;26.00;56.50;;;;;;5000562;28;20631;-51
2022/09/07 04:50:15;;;;;;;5.03;3.13;;;26.00;56.30;;;;;;5012033;28;20214;-51
2022/09/07 04:52:42;;;;;;;5.03;3.23;;;25.90;56.20;;;;;;5012062;28;20445;-48
2022/09/07 04:55:08;;;;;;;3.77;3.27;;;25.90;56.40;;;;;;5022897;28;20524;-50
2022/09/07 04:57:34;;;;;;;4.20;3.33;;;25.90;56.40;;;;;;5025047;28;20523;-50
2022/09/07 05:00:00;;;;;;;5.80;4.17;;;25.90;56.40;;;;;;5004353;28;20467;-48
2022/09/07 05:02:26;;;;;;;10.20;4.10;;;25.90;56.50;;;;;;5009229;28;20220;-49
2022/09/07 05:04:51;;;;;;;4.27;3.87;;;25.90;56.40;;;;;;5008137;28;20448;-50
2022/09/07 05:07:17;;;;;;;5.40;4.80;;;25.90;56.40;;;;;;4997418;28;20537;-51
2022/09/07 05:09:43;;;;;;;4.90;4.10;;;25.90;56.00;;;;;;5006017;28;20236;-49
2022/09/07 05:12:09;;;;;;;10.73;4.03;;;25.70;56.10;;;;;;5003822;28;20317;-49
2022/09/07 05:14:34;;;;;;;4.30;3.80;;;25.60;57.20;;;;;;4997414;28;20720;-47
2022/09/07 05:17:00;;;;;;;5.43;4.33;;;25.40;57.60;;;;;;5007996;28;20449;-48
2022/09/07 05:19:26;;;;;;;5.30;4.23;;;25.40;57.60;;;;;;5003749;28;20291;-46
2022/09/07 05:21:52;;;;;;;7.40;4.83;;;25.40;57.40;;;;;;5009092;28;20292;-51
2022/09/07 05:24:18;;;;;;;5.50;4.10;;;25.20;57.70;;;;;;5005591;28;20441;-46
2022/09/07 05:26:44;;;;;;;6.60;4.37;;;25.20;57.70;;;;;;5000773;28;20984;-46
2022/09/07 05:29:10;;;;;;;6.20;4.40;;;25.40;57.40;;;;;;5008390;28;20194;-46
2022/09/07 05:31:35;;;;;;;6.67;4.13;;;25.40;57.20;;;;;;5002308;28;20252;-47
2022/09/07 05:34:01;;;;;;;7.00;4.20;;;25.40;57.20;;;;;;5006451;28;20289;-50
2022/09/07 05:36:28;;;;;;;5.00;4.10;;;25.50;57.20;;;;;;5008375;28;20201;-47
2022/09/07 05:38:55;;;;;;;5.10;4.50;;;25.50;57.10;;;;;;5009669;28;20453;-46
2022/09/07 05:41:23;;;;;;;7.83;4.83;;;25.50;57.00;;;;;;5009142;28;20488;-51
2022/09/07 05:43:49;;;;;;;7.90;4.10;;;25.50;57.00;;;;;;5010434;28;21012;-48
2022/09/07 05:46:16;;;;;;;7.47;3.90;;;25.50;56.90;;;;;;5008205;28;20445;-47
2022/09/07 05:48:42;;;;;;;7.13;4.67;;;25.50;56.90;;;;;;5008080;28;20437;-47
2022/09/07 05:51:08;;;;;;;4.17;3.77;;;25.50;56.90;;;;;;5008143;28;20476;-46
2022/09/07 05:53:39;;;;;;;5.70;3.87;;;25.60;56.70;;;;;;5004148;28;20861;-49
2022/09/07 05:56:05;;;;;;;4.97;3.97;;;25.60;56.70;;;;;;5007869;28;20536;-50
2022/09/07 05:58:31;;;;;;;4.80;4.30;;;25.60;56.60;;;;;;5006674;28;20459;-47
2022/09/07 06:01:05;;;;;;;7.10;4.40;;;25.70;56.50;;;;;;5005865;28;20861;-46
2022/09/07 06:03:34;;;;;;;8.40;4.87;;;25.80;56.40;;;;;;5011861;28;20995;-46
2022/09/07 06:06:06;;;;;;;4.70;3.73;;;25.90;56.30;;;;;;5002700;28;20463;-48
2022/09/07 06:08:33;;;;;;;5.87;4.10;;;25.90;56.30;;;;;;5007460;28;20471;-46
2022/09/07 06:11:05;;;;;;;8.10;3.90;;;25.80;56.50;;;;;;5001816;28;20440;-46
2022/09/07 06:13:31;;;;;;;3.70;3.40;;;25.20;58.10;;;;;;5001525;28;20482;-46
2022/09/07 06:16:03;;;;;;;6.47;4.20;;;25.20;58.70;;;;;;4999380;28;20933;-46
2022/09/07 06:18:34;;;;;;;4.20;3.70;;;25.40;58.00;;;;;;5007182;28;20201;-46
2022/09/07 06:21:07;;;;;;;5.50;4.30;;;25.70;57.60;;;;;;5004996;28;20524;-47
2022/09/07 06:23:35;;;;;;;4.03;3.60;;;25.90;57.10;;;;;;5009954;28;20535;-47
2022/09/07 06:26:02;;;;;;;5.00;3.80;;;25.90;57.20;;;;;;5007305;28;20543;-49
2022/09/07 06:28:33;;;;;;;4.20;3.80;;;26.00;57.20;;;;;;5008810;28;20807;-50
2022/09/07 06:31:10;;;;;;;6.13;3.97;;;26.10;57.00;;;;;;5008413;28;20483;-47
2022/09/07 06:33:35;;;;;;;6.13;3.80;;;26.20;56.90;;;;;;5035913;28;20518;-46
2022/09/07 06:36:08;;;;;;;7.73;4.00;;;26.30;57.00;;;;;;5007209;28;20449;-49
2022/09/07 06:38:36;;;;;;;6.80;4.00;;;26.40;56.60;;;;;;5004697;28;20289;-48
2022/09/07 06:41:05;;;;;;;4.20;3.73;;;26.60;56.30;;;;;;5004798;28;20851;-49
2022/09/07 06:43:33;;;;;;;5.90;4.17;;;26.60;56.30;;;;;;5006739;28;20488;-47
2022/09/07 06:45:59;;;;;;;6.00;4.20;;;26.70;56.00;;;;;;5010112;28;20449;-46
2022/09/07 06:48:25;;;;;;;3.87;3.57;;;26.70;55.50;;;;;;5015564;28;20440;-50
2022/09/07 06:51:06;;;;;;;4.87;3.47;;;26.60;55.70;;;;;;5006250;28;20534;-50
2022/09/07 06:53:36;;;;;;;5.00;3.90;;;26.70;55.80;;;;;;5006739;28;20928;-48
2022/09/07 06:56:06;;;;;;;6.13;3.40;;;26.80;55.60;;;;;;4998752;28;20508;-46
2022/09/07 06:58:32;;;;;;;7.00;4.00;;;26.70;55.70;;;;;;5005187;28;20448;-46
2022/09/07 07:01:03;;;;;;;5.57;3.60;;;26.60;55.80;;;;;;4996192;28;20946;-47
2022/09/07 07:03:28;;;;;;;7.33;4.03;;;26.60;56.10;;;;;;5000783;28;20488;-46
2022/09/07 07:05:55;;;;;;;5.30;4.00;;;26.80;55.80;;;;;;4998386;28;21143;-45
2022/09/07 07:08:23;;;;;;;7.87;3.50;;;26.70;56.10;;;;;;5008729;28;20194;-46
2022/09/07 07:10:50;;;;;;;9.83;3.90;;;26.40;56.90;;;;;;5010285;28;20496;-45
2022/09/07 07:13:16;;;;;;;6.67;4.47;;;26.50;57.20;;;;;;5009757;28;20502;-47
2022/09/07 07:15:42;;;;;;;8.07;3.87;;;26.40;56.70;;;;;;5001796;28;20515;-45
2022/09/07 07:18:09;;;;;;;11.97;4.17;;;26.50;56.80;;;;;;5004473;28;20452;-47
2022/09/07 07:20:36;;;;;;;4.33;3.63;;;26.40;56.70;;;;;;5006875;28;20842;-46
2022/09/07 07:23:02;;;;;;;8.63;3.50;;;26.70;56.40;;;;;;5007464;28;20803;-48
2022/09/07 07:25:28;;;;;;;6.30;3.20;;;26.80;56.30;;;;;;5001195;28;20449;-46
2022/09/07 07:27:54;;;;;;;4.50;2.83;;;27.10;55.40;;;;;;5002334;28;20456;-49
2022/09/07 07:30:19;;;;;;;4.57;3.37;;;27.00;55.80;;;;;;5002350;28;20221;-50
2022/09/07 07:32:45;;;;;;;2.70;2.50;;;27.00;55.90;;;;;;4996551;28;20204;-46
2022/09/07 07:35:12;;;;;;;5.33;3.20;;;27.10;55.30;;;;;;5006770;28;20189;-46
2022/09/07 07:37:37;;;;;;;5.17;3.07;;;27.30;54.80;;;;;;5005140;28;20233;-45
2022/09/07 07:40:06;;;;;;;4.93;3.00;;;27.40;54.80;;;;;;5002095;28;20485;-47
2022/09/07 07:42:32;;;;;;;4.50;3.33;;;27.60;54.40;;;;;;5004367;28;20260;-45
2022/09/07 07:44:58;;;;;;;4.83;2.67;;;27.80;54.10;;;;;;5009846;28;20559;-47
2022/09/07 07:47:25;;;;;;;4.50;3.03;;;28.00;53.70;;;;;;5010285;28;21021;-47
2022/09/07 07:49:51;;;;;;;6.73;2.93;;;28.10;53.40;;;;;;5017194;28;20194;-48
2022/09/07 07:52:17;;;;;;;6.10;3.00;;;28.30;53.00;;;;;;5005387;28;20448;-46
2022/09/07 07:54:44;;;;;;;9.20;2.90;;;28.40;52.70;;;;;;5024085;28;20483;-48
2022/09/07 07:57:10;;;;;;;5.73;2.67;;;28.50;52.40;;;;;;5013360;28;20433;-47
2022/09/07 07:59:37;;;;;;;3.67;2.33;;;28.50;52.20;;;;;;5007622;28;20483;-48
2022/09/07 08:02:04;;;;;;;9.00;3.33;;;28.60;51.90;;;;;;5011889;28;20496;-46
2022/09/07 08:04:32;;;;;;;3.43;2.73;;;28.70;51.90;;;;;;5004392;28;20449;-46
2022/09/07 08:06:57;;;;;;;4.00;2.77;;;28.70;51.70;;;;;;5007155;28;20873;-46
2022/09/07 08:09:23;;;;;;;3.10;2.60;;;28.80;51.60;;;;;;5010314;28;20445;-47
2022/09/07 08:11:49;;;;;;;4.13;2.67;;;28.80;51.60;;;;;;5011543;28;20273;-45
2022/09/07 08:14:15;;;;;;;2.93;2.30;;;28.90;51.60;;;;;;5009080;28;20252;-46
2022/09/07 08:16:44;;;;;;;4.27;2.77;;;29.00;51.40;;;;;;5002982;28;20239;-48
2022/09/07 08:19:10;;;;;;;3.77;2.50;;;29.10;51.20;;;;;;5002543;28;20194;-46
2022/09/07 08:21:36;;;;;;;5.30;2.73;;;29.10;50.90;;;;;;5012061;28;20487;-48
2022/09/07 08:24:02;;;;;;;4.47;3.37;;;29.20;51.00;;;;;;5008680;28;20202;-47
2022/09/07 08:26:28;;;;;;;4.53;2.43;;;29.20;51.30;;;;;;5007602;28;20205;-51
2022/09/07 08:28:54;;;;;;;4.73;2.60;;;29.30;50.40;;;;;;5006603;28;20449;-46
2022/09/07 08:31:19;;;;;;;5.30;2.90;;;29.40;50.40;;;;;;5009603;28;21059;-49
2022/09/07 08:33:45;;;;;;;6.33;2.80;;;29.40;50.00;;;;;;5011748;28;20193;-46
2022/09/07 08:36:16;;;;;;;6.40;2.83;;;29.50;49.80;;;;;;5011608;28;20190;-47
2022/09/07 08:38:41;;;;;;;2.97;2.50;;;29.60;49.60;;;;;;5010639;28;20190;-50
2022/09/07 08:41:35;;;;;;;4.70;2.90;;;29.60;49.30;;;;;;5020960;28;20498;-49
2022/09/07 08:44:35;;;;;;;4.03;3.03;;;29.60;49.50;;;;;;5002784;28;21253;-48
2022/09/07 08:47:43;;;;;;;5.83;2.70;;;29.70;49.40;;;;;;4971659;28;20461;-46
2022/09/07 08:50:21;;;;;;;7.83;3.00;;;29.80;48.80;;;;;;4988697;28;20911;-49
2022/09/07 08:52:58;;;;;;;4.00;2.50;;;29.90;48.70;;;;;;5001159;28;20444;-46
2022/09/07 08:55:35;;;;;;;5.07;3.20;;;30.00;48.80;;;;;;5001375;28;20452;-48
2022/09/07 08:58:23;;;;;;;12.17;3.93;;;30.10;48.50;;;;;;5003986;28;20881;-50
2022/09/07 09:00:48;;;;;;;4.77;3.60;;;30.10;47.70;;;;;;5002045;28;20971;-51
2022/09/07 09:03:20;;;;;;;8.90;3.30;;;30.00;47.80;;;;;;5010618;28;20451;-52
2022/09/07 09:06:19;;;;;;;4.87;3.27;;;30.00;47.40;;;;;;5009040;28;20328;-51
2022/09/07 09:09:09;;;;;;;8.07;3.37;;;30.10;47.30;;;;;;5006458;28;20474;-51
2022/09/07 09:11:55;;;;;;;6.33;2.90;;;30.20;47.10;;;;;;4998050;28;20460;-51
2022/09/07 09:14:48;;;;;;;5.67;3.00;;;30.40;47.30;;;;;;5007385;28;20453;-50
2022/09/07 09:17:44;;;;;;;7.13;2.63;;;30.50;46.40;;;;;;5004269;28;20567;-47
2022/09/07 09:20:26;;;;;;;6.90;2.63;;;30.60;46.60;;;;;;5004780;28;20843;-48
2022/09/07 09:23:09;;;;;;;4.20;2.90;;;30.70;45.80;;;;;;5010382;28;20449;-50
2022/09/07 09:25:38;;;;;;;4.93;3.10;;;30.60;45.60;;;;;;5008804;28;20480;-49
2022/09/07 09:28:04;;;;;;;5.67;3.20;;;30.70;45.60;;;;;;4996171;28;20444;-47
2022/09/07 09:30:30;;;;;;;5.53;2.97;;;31.00;45.70;;;;;;4997622;28;20461;-50
2022/09/07 09:33:18;;;;;;;4.33;2.60;;;31.00;45.30;;;;;;5007303;28;20280;-51
2022/09/07 09:35:48;;;;;;;10.90;3.13;;;31.10;45.20;;;;;;5008986;28;20450;-47
2022/09/07 09:38:34;;;;;;;4.67;2.90;;;31.20;44.80;;;;;;5005477;28;20449;-47
2022/09/07 09:41:09;;;;;;;2.80;2.37;;;31.40;44.30;;;;;;4998500;28;21670;-48
2022/09/07 09:43:46;;;;;;;4.47;2.57;;;31.40;44.40;;;;;;5002442;28;20808;-47
2022/09/07 09:46:18;;;;;;;2.80;2.50;;;31.50;44.00;;;;;;5004074;28;20441;-47
2022/09/07 09:48:56;;;;;;;3.60;2.77;;;31.60;44.30;;;;;;5005899;28;20441;-50
2022/09/07 09:51:23;;;;;;;5.40;2.50;;;31.70;43.60;;;;;;5009897;28;20607;-47
2022/09/07 09:53:56;;;;;;;5.27;2.93;;;31.80;43.40;;;;;;4998334;28;20803;-48
2022/09/07 09:56:23;;;;;;;5.90;3.50;;;31.90;43.20;;;;;;5001944;28;20453;-47
2022/09/07 09:58:49;;;;;;;4.63;2.40;;;32.10;43.10;;;;;;4999959;28;21160;-49
2022/09/07 10:01:20;;;;;;;6.87;2.87;;;32.20;42.50;;;;;;4997913;28;20500;-47
2022/09/07 10:03:46;;;;;;;4.67;2.73;;;32.20;42.50;;;;;;5008144;28;20284;-48
2022/09/07 10:06:15;;;;;;;6.10;2.77;;;32.20;42.70;;;;;;5010641;28;20564;-47
2022/09/07 10:09:01;;;;;;;4.23;2.47;;;32.20;42.10;;;;;;5008938;28;20247;-48
2022/09/07 10:11:48;;;;;;;4.37;2.67;;;32.30;42.20;;;;;;5000267;28;20488;-50
2022/09/07 10:14:18;;;;;;;4.77;3.43;;;32.40;42.30;;;;;;5007058;28;20452;-48
2022/09/07 10:16:45;;;;;;;6.23;3.00;;;32.30;42.70;;;;;;5006734;28;20530;-48
2022/09/07 10:19:32;;;;;;;4.03;3.03;;;32.40;43.00;;;;;;5007405;28;20515;-46
2022/09/07 10:22:00;;;;;;;7.37;4.07;;;32.50;42.70;;;;;;5004546;28;20529;-49
2022/09/07 10:24:37;;;;;;;8.90;5.60;;;32.60;42.60;;;;;;5007800;28;20469;-50
2022/09/07 10:27:19;;;;;;;6.27;3.73;;;32.70;42.20;;;;;;5003243;28;20532;-48
2022/09/07 10:29:45;;;;;;;7.70;4.13;;;32.80;42.20;;;;;;5006378;28;20532;-50
2022/09/07 10:32:29;;;;;;;4.13;2.70;;;33.00;41.80;;;;;;5009520;28;20480;-50
2022/09/07 10:35:14;;;;;;;8.67;3.80;;;33.20;41.40;;;;;;5009618;28;20195;-50
2022/09/07 10:37:50;;;;;;;5.07;3.13;;;33.30;41.40;;;;;;5020787;28;20922;-52
2022/09/07 10:40:15;;;;;;;5.53;3.73;;;33.50;41.10;;;;;;5021612;28;20456;-51
2022/09/07 10:43:15;;;;;;;6.20;3.00;;;33.70;40.60;;;;;;5004595;28;20472;-48
2022/09/07 10:46:03;;;;;;;3.10;2.60;;;33.90;40.30;;;;;;4998815;28;20220;-52
2022/09/07 10:48:40;;;;;;;5.60;3.03;;;34.10;39.40;;;;;;5009362;28;20444;-50
2022/09/07 10:51:25;;;;;;;7.73;3.30;;;34.10;39.60;;;;;;5007859;28;20472;-52
2022/09/07 10:54:02;;;;;;;4.23;2.73;;;34.10;39.60;;;;;;5003471;28;20460;-48
2022/09/07 10:56:56;;;;;;;4.87;3.33;;;34.10;39.30;;;;;;5000824;28;20530;-52
2022/09/07 10:59:38;;;;;;;4.40;3.70;;;34.00;39.40;;;;;;4998107;28;20524;-47
2022/09/07 11:02:28;;;;;;;4.17;3.10;;;33.90;39.60;;;;;;5008776;28;20496;-48
2022/09/07 11:05:06;;;;;;;4.27;3.07;;;34.00;39.90;;;;;;5006308;28;20534;-48
2022/09/07 11:07:49;;;;;;;3.63;2.70;;;33.90;39.70;;;;;;5010060;28;20467;-47
2022/09/07 11:10:24;;;;;;;7.13;3.40;;;33.90;39.50;;;;;;5018615;28;20447;-50
2022/09/07 11:12:51;;;;;;;4.37;2.80;;;33.80;39.50;;;;;;5007954;28;20810;-47
2022/09/07 11:15:23;;;;;;;7.13;3.30;;;33.70;39.90;;;;;;5007799;28;20857;-47
2022/09/07 11:17:59;;;;;;;2.60;2.40;;;33.70;40.30;;;;;;5001977;28;20459;-47
2022/09/07 11:20:41;;;;;;;5.17;3.20;;;33.60;40.80;;;;;;5011665;28;20451;-49
2022/09/07 11:23:22;;;;;;;4.43;2.70;;;33.50;40.50;;;;;;5005959;28;20457;-50
2022/09/07 11:26:16;;;;;;;4.30;2.83;;;33.50;40.80;;;;;;5001752;28;20548;-47
2022/09/07 11:28:44;;;;;;;8.10;3.30;;;33.40;40.80;;;;;;5006501;28;20532;-47
2022/09/07 11:31:18;;;;;;;5.57;2.93;;;33.40;40.70;;;;;;5003894;28;20455;-47
2022/09/07 11:34:16;;;;;;;4.47;3.00;;;33.20;40.70;;;;;;5007868;28;20449;-47
2022/09/07 11:36:50;;;;;;;4.13;2.70;;;33.20;40.70;;;;;;5005777;28;20456;-48
2022/09/07 11:39:27;;;;;;;3.83;2.63;;;33.00;40.70;;;;;;5002479;28;20432;-50
2022/09/07 11:42:04;;;;;;;3.97;2.67;;;33.10;40.90;;;;;;5007895;28;20526;-46
2022/09/07 11:44:49;;;;;;;3.63;2.90;;;33.20;41.00;;;;;;5006817;28;20457;-48
2022/09/07 11:47:25;;;;;;;4.73;3.23;;;33.30;40.80;;;;;;5007289;28;20480;-47
2022/09/07 11:49:55;;;;;;;5.13;2.77;;;33.50;41.10;;;;;;5013412;28;20448;-50
2022/09/07 11:52:32;;;;;;;7.87;3.33;;;33.70;40.60;;;;;;5003262;28;20528;-47
2022/09/07 11:55:13;;;;;;;6.37;3.37;;;33.90;39.60;;;;;;5002391;28;20584;-49
2022/09/07 11:57:42;;;;;;;5.03;2.40;;;33.90;38.40;;;;;;5007288;28;20539;-48
2022/09/07 12:00:36;;;;;;;4.30;2.70;;;33.90;37.90;;;;;;5008918;28;20784;-47
2022/09/07 12:03:17;;;;;;;6.00;2.63;;;34.20;39.00;;;;;;5005984;28;20543;-48
2022/09/07 12:06:14;;;;;;;7.50;3.30;;;34.40;37.80;;;;;;5004809;28;20463;-47
2022/09/07 12:09:11;;;;;;;5.00;2.63;;;34.40;36.80;;;;;;5005484;28;20452;-47
2022/09/07 12:11:39;;;;;;;5.37;3.57;;;34.20;37.60;;;;;;5005216;28;20456;-48
2022/09/07 12:14:20;;;;;;;7.00;2.60;;;34.50;37.20;;;;;;5002036;28;20436;-49
2022/09/07 12:16:57;;;;;;;3.00;2.50;;;34.70;36.40;;;;;;5000447;28;20452;-47
2022/09/07 12:19:25;;;;;;;3.60;2.43;;;34.90;36.90;;;;;;5000341;28;20917;-48
2022/09/07 12:21:50;;;;;;;3.07;2.40;;;35.10;36.50;;;;;;5006911;28;20503;-50
2022/09/07 12:24:52;;;;;;;3.90;2.90;;;35.30;36.10;;;;;;5006580;28;20456;-47
2022/09/07 12:27:21;;;;;;;5.00;2.87;;;35.60;35.70;;;;;;4999008;28;20684;-47
2022/09/07 12:30:01;;;;;;;4.40;3.43;;;35.70;34.60;;;;;;5001096;28;20449;-49
2022/09/07 12:32:48;;;;;;;5.80;2.80;;;35.60;35.30;;;;;;5008679;28;20444;-47
2022/09/07 12:35:25;;;;;;;5.40;2.23;;;35.30;35.60;;;;;;5018162;28;22100;-48
2022/09/07 12:37:52;;;;;;;3.13;2.40;;;35.40;35.10;;;;;;5007130;28;20463;-49
2022/09/07 12:40:26;;;;;;;2.73;2.53;;;35.50;34.70;;;;;;5005121;28;20456;-50
2022/09/07 12:43:11;;;;;;;5.93;2.63;;;35.30;34.90;;;;;;5008466;28;20644;-49
2022/09/07 12:45:36;;;;;;;3.50;3.20;;;35.30;35.20;;;;;;5013516;28;20431;-49
2022/09/07 12:48:14;;;;;;;3.20;2.33;;;35.20;35.30;;;;;;5030926;28;20436;-48
2022/09/07 12:50:57;;;;;;;3.40;2.37;;;35.20;35.60;;;;;;5013357;28;20197;-49
2022/09/07 12:53:52;;;;;;;4.83;2.40;;;35.20;35.30;;;;;;5010363;28;20555;-51
2022/09/07 12:56:33;;;;;;;6.50;2.40;;;35.10;36.10;;;;;;5020062;28;20444;-46
2022/09/07 12:59:33;;;;;;;4.00;2.30;;;35.10;35.40;;;;;;5021752;28;20451;-48
2022/09/07 13:02:17;;;;;;;5.83;2.20;;;35.20;35.00;;;;;;5024754;28;20485;-47
2022/09/07 13:05:02;;;;;;;4.20;2.20;;;35.10;34.70;;;;;;5010905;28;20803;-48
2022/09/07 13:07:50;;;;;;;4.77;2.37;;;35.30;35.00;;;;;;5028780;28;20428;-47
2022/09/07 13:10:22;;;;;;;3.63;2.37;;;35.40;33.40;;;;;;5007844;28;20531;-47
2022/09/07 13:12:49;;;;;;;4.63;2.53;;;35.10;33.70;;;;;;5013801;28;20441;-51
2022/09/07 13:15:40;;;;;;;4.27;2.30;;;35.00;33.80;;;;;;5025533;28;20475;-48